Terminal Aerodrome Forecast
Issued by NWS

Home | Current Version | Previous Version | Text Only | Print | Product List | Glossary On
Versions: 1 2 3 4 5 6 7 8 9 10 11 12 13 14 15 16 17 18 19 20 21 22 23 24 25 26 27 28 29 30 31 32 33 34 35 36 37 38 39 40 41 42 43 44 45 46 47 48
000
FTUS41 KRNK 231742 CCA
TAFLWB
TAF COR
KLWB 231742Z 2318/2418 09005KT P6SM OVC012
      TEMPO 2319/2322 5SM -SHRA BR OVC005
     FM232200 08005KT 5SM -SHRA BR OVC007
      TEMPO 2322/2402 2SM -SHRA OVC003
     FM240600 VRB03KT 3SM BR VCSH OVC005
      TEMPO 2409/2412 1SM BR OVC001
     FM241400 12006KT P6SM -SHRA OVC015=

USA.gov is the U.S. government's official web portal to all federal, state and local government web resources and services.